createdAt,value
2023-03-31T00:00:16.379Z,8.65
2023-03-31T00:05:18.363Z,8.64
2023-03-31T00:10:20.281Z,8.67
2023-03-31T00:15:22.360Z,8.64
2023-03-31T00:20:24.144Z,8.77
2023-03-31T00:25:25.942Z,8.87
2023-03-31T00:30:27.808Z,8.74
2023-03-31T00:35:29.622Z,8.63
2023-03-31T00:40:32.264Z,8.61
2023-03-31T00:45:34.272Z,8.56
2023-03-31T00:50:44.300Z,8.49
2023-03-31T00:55:51.731Z,8.46
2023-03-31T01:00:53.996Z,8.44
2023-03-31T01:06:00.130Z,8.37
2023-03-31T01:11:04.696Z,8.45
2023-03-31T01:16:06.841Z,8.55
2023-03-31T01:21:30.561Z,8.57
2023-03-31T01:27:00.554Z,8.58
2023-03-31T01:32:19.870Z,8.57
2023-03-31T01:37:52.473Z,8.58
2023-03-31T01:43:16.124Z,8.60
2023-03-31T01:48:42.017Z,8.56
2023-03-31T01:54:18.237Z,8.46
2023-03-31T01:59:45.163Z,8.37
2023-03-31T02:04:52.244Z,8.32
2023-03-31T02:09:59.973Z,8.30
2023-03-31T02:15:06.219Z,8.28
2023-03-31T02:20:12.673Z,8.35
2023-03-31T02:25:19.277Z,8.42
2023-03-31T02:30:21.195Z,8.58
2023-03-31T02:35:23.173Z,8.66
2023-03-31T02:40:27.737Z,8.78
2023-03-31T02:45:39.110Z,8.84
2023-03-31T02:51:02.304Z,8.83
2023-03-31T02:56:41.846Z,8.80
2023-03-31T03:02:02.889Z,8.81
2023-03-31T03:07:09.220Z,8.88
2023-03-31T03:12:35.631Z,8.97
2023-03-31T03:17:43.884Z,8.99
2023-03-31T03:22:45.540Z,9.11
2023-03-31T03:27:47.630Z,9.16
2023-03-31T03:32:50.541Z,9.13
2023-03-31T03:37:52.243Z,9.14
2023-03-31T03:42:53.865Z,9.10
2023-03-31T03:47:55.506Z,9.09
2023-03-31T03:52:57.160Z,9.04
2023-03-31T03:57:58.748Z,9.02
2023-03-31T04:03:00.596Z,8.98
2023-03-31T04:08:02.991Z,8.93
2023-03-31T04:13:04.624Z,8.88
2023-03-31T04:18:06.310Z,8.85
2023-03-31T04:23:09.769Z,8.93
2023-03-31T04:28:14.562Z,8.93
2023-03-31T04:33:17.370Z,8.68
2023-03-31T04:38:21.369Z,8.40
2023-03-31T04:43:22.997Z,8.28
2023-03-31T04:48:24.682Z,8.22
2023-03-31T04:53:26.423Z,8.29
2023-03-31T04:58:28.359Z,8.33
2023-03-31T05:03:30.029Z,8.33
2023-03-31T05:08:31.767Z,8.38
2023-03-31T05:13:33.560Z,8.23
2023-03-31T05:18:35.441Z,8.21
2023-03-31T05:23:37.246Z,8.19
2023-03-31T05:28:39.721Z,8.30
2023-03-31T05:33:42.212Z,8.48
2023-03-31T05:38:44.466Z,8.57
2023-03-31T05:43:46.339Z,8.85
2023-03-31T05:48:48.149Z,9.15
2023-03-31T05:53:49.767Z,9.46
2023-03-31T05:58:51.479Z,9.70
2023-03-31T06:03:53.372Z,9.80
2023-03-31T06:08:55.063Z,9.94
2023-03-31T06:13:56.748Z,10.07
2023-03-31T06:18:58.373Z,10.16
2023-03-31T06:24:00.723Z,10.12
2023-03-31T06:29:02.602Z,10.13
2023-03-31T06:34:04.241Z,10.22
2023-03-31T06:39:05.927Z,10.40
2023-03-31T06:44:07.536Z,10.50
2023-03-31T06:49:09.160Z,10.77
2023-03-31T06:54:10.813Z,10.85
2023-03-31T06:59:12.477Z,10.96
2023-03-31T07:04:14.320Z,11.07
2023-03-31T07:09:16.217Z,11.24
2023-03-31T07:14:18.082Z,11.36
2023-03-31T07:19:20.096Z,11.26
2023-03-31T07:24:22.437Z,11.50
2023-03-31T07:29:24.430Z,11.42
2023-03-31T07:34:26.321Z,11.42
2023-03-31T07:39:28.166Z,11.40
2023-03-31T07:44:29.986Z,11.24
2023-03-31T07:49:33.980Z,11.17
2023-03-31T07:54:36.030Z,10.64
2023-03-31T07:59:37.969Z,10.16
2023-03-31T08:04:42.242Z,9.81
2023-03-31T08:09:46.222Z,9.69
2023-03-31T08:14:48.974Z,9.73
2023-03-31T08:19:52.217Z,9.79
2023-03-31T08:24:54.082Z,9.97
2023-03-31T08:29:55.886Z,10.07
2023-03-31T08:34:57.719Z,10.06
2023-03-31T08:40:00.405Z,10.04
2023-03-31T08:45:06.608Z,10.03
2023-03-31T08:50:16.011Z,10.09
2023-03-31T08:55:28.047Z,10.07
2023-03-31T09:00:51.244Z,10.12
2023-03-31T09:06:03.183Z,10.13
2023-03-31T09:11:08.127Z,9.90
2023-03-31T09:16:14.920Z,9.86
2023-03-31T09:21:36.128Z,9.82
2023-03-31T09:26:41.157Z,9.67
2023-03-31T09:31:44.093Z,9.89
2023-03-31T09:36:46.011Z,9.71
2023-03-31T09:41:50.866Z,9.59
2023-03-31T09:46:54.104Z,9.63
2023-03-31T09:52:15.487Z,9.93
2023-03-31T09:57:27.294Z,9.76
2023-03-31T10:02:37.883Z,9.79
2023-03-31T10:07:39.827Z,9.67
2023-03-31T10:12:41.722Z,9.59
2023-03-31T10:17:54.824Z,9.48
2023-03-31T10:23:03.639Z,9.34
2023-03-31T10:28:05.571Z,9.33
2023-03-31T10:33:22.187Z,9.30
2023-03-31T10:38:29.379Z,9.27
2023-03-31T10:43:40.116Z,9.09
2023-03-31T10:48:44.482Z,9.05
2023-03-31T10:53:51.641Z,8.94
2023-03-31T10:59:14.818Z,8.86
2023-03-31T11:04:46.278Z,8.82
2023-03-31T11:10:13.810Z,8.78
2023-03-31T11:15:25.721Z,8.68
2023-03-31T11:41:02.416Z,8.67
2023-03-31T11:53:12.635Z,9.01
2023-03-31T12:10:58.320Z,9.18
2023-03-31T12:16:33.845Z,9.25
2023-03-31T12:22:22.832Z,9.40
2023-03-31T12:27:49.257Z,9.83
2023-03-31T12:33:10.630Z,10.06
2023-03-31T12:38:30.057Z,10.42
2023-03-31T12:44:22.334Z,10.60
2023-03-31T12:50:18.387Z,10.87
2023-03-31T12:56:10.239Z,11.20
2023-03-31T13:01:22.117Z,10.82
2023-03-31T13:06:30.462Z,11.12
2023-03-31T13:11:38.118Z,11.28
2023-03-31T13:16:40.661Z,12.13
2023-03-31T13:22:00.095Z,13.22
2023-03-31T13:27:48.675Z,13.67
2023-03-31T13:33:11.234Z,13.34
2023-03-31T13:38:13.086Z,13.97
2023-03-31T13:43:33.276Z,14.28
2023-03-31T13:48:54.365Z,15.80
2023-03-31T13:54:33.766Z,16.44
2023-03-31T13:59:42.406Z,15.11
2023-03-31T14:05:17.765Z,16.35
2023-03-31T14:10:24.049Z,15.10
2023-03-31T14:15:26.193Z,14.64
2023-03-31T14:20:42.580Z,15.26
2023-03-31T14:25:57.389Z,13.78
2023-03-31T14:31:21.542Z,13.30
2023-03-31T14:36:38.191Z,12.65
2023-03-31T14:41:41.677Z,12.54
2023-03-31T14:46:43.519Z,12.71
2023-03-31T14:51:45.829Z,13.11
2023-03-31T14:56:53.112Z,13.10
2023-03-31T15:01:58.424Z,12.41
2023-03-31T15:07:01.648Z,12.00
2023-03-31T15:12:07.541Z,11.80
2023-03-31T15:17:38.379Z,11.29
2023-03-31T15:22:41.039Z,10.45
2023-03-31T15:27:53.714Z,11.05
2023-03-31T15:33:04.316Z,11.64
2023-03-31T15:38:18.761Z,11.47
2023-03-31T15:43:43.304Z,11.40
2023-03-31T15:48:53.213Z,11.73
2023-03-31T15:53:55.426Z,11.57
2023-03-31T15:59:00.801Z,11.24
2023-03-31T16:04:07.880Z,11.07
2023-03-31T16:09:16.221Z,10.97
2023-03-31T16:14:24.868Z,11.09
2023-03-31T16:19:29.570Z,11.50
2023-03-31T16:24:34.715Z,11.80
2023-03-31T16:29:38.223Z,11.44
2023-03-31T16:35:00.103Z,11.21
2023-03-31T16:40:02.344Z,11.02
2023-03-31T16:45:13.743Z,10.89
2023-03-31T16:50:16.684Z,10.79
2023-03-31T16:55:18.503Z,10.73
2023-03-31T17:00:20.706Z,10.70
2023-03-31T17:05:22.505Z,10.64
2023-03-31T17:10:24.606Z,10.52
2023-03-31T17:15:29.731Z,10.33
2023-03-31T17:20:31.844Z,10.11
2023-03-31T17:25:35.110Z,9.94
2023-03-31T17:30:38.693Z,9.75
2023-03-31T17:35:40.790Z,9.68
2023-03-31T17:40:43.218Z,9.66
2023-03-31T17:45:45.179Z,9.62
2023-03-31T17:50:47.398Z,9.53
2023-03-31T17:55:49.240Z,9.49
2023-03-31T18:00:52.242Z,9.41
2023-03-31T18:05:54.243Z,9.35
2023-03-31T18:10:56.653Z,9.35
2023-03-31T18:15:58.894Z,9.39
2023-03-31T18:21:06.231Z,9.35
2023-03-31T18:26:10.068Z,9.30
2023-03-31T18:31:12.540Z,9.21
2023-03-31T18:36:19.537Z,9.12
2023-03-31T18:41:21.770Z,9.06
2023-03-31T18:46:23.855Z,9.08
2023-03-31T18:51:25.761Z,8.92
2023-03-31T18:56:27.958Z,8.69
2023-03-31T19:01:48.961Z,8.42
2023-03-31T19:06:52.261Z,8.20
2023-03-31T19:11:54.106Z,8.10
2023-03-31T19:16:56.297Z,7.98
2023-03-31T19:21:58.602Z,8.09
2023-03-31T19:27:00.468Z,8.09
2023-03-31T19:32:02.837Z,8.06
2023-03-31T19:37:05.171Z,8.09
2023-03-31T19:42:07.040Z,8.11
2023-03-31T19:47:08.835Z,8.06
2023-03-31T19:52:10.649Z,7.95
2023-03-31T19:57:12.913Z,7.88
2023-03-31T20:02:14.876Z,7.83
2023-03-31T20:07:16.849Z,7.76
2023-03-31T20:12:18.937Z,7.73
2023-03-31T20:17:21.237Z,7.64
2023-03-31T20:22:23.128Z,7.59
2023-03-31T20:27:26.457Z,7.59
2023-03-31T20:32:28.626Z,7.62
2023-03-31T20:37:30.456Z,7.67
2023-03-31T20:42:32.292Z,7.70
2023-03-31T20:47:35.355Z,7.74
2023-03-31T20:52:37.193Z,7.78
2023-03-31T20:57:39.020Z,7.76
2023-03-31T21:02:41.953Z,7.74
2023-03-31T21:07:44.019Z,7.75
2023-03-31T21:12:46.464Z,7.78
2023-03-31T21:17:48.376Z,7.65
2023-03-31T21:22:50.416Z,7.67
2023-03-31T21:27:52.610Z,7.59
2023-03-31T21:32:54.559Z,7.63
2023-03-31T21:37:56.453Z,7.64
2023-03-31T21:42:58.236Z,7.60
2023-03-31T21:48:00.042Z,7.55
2023-03-31T21:53:04.899Z,7.40
2023-03-31T21:58:06.767Z,7.34
2023-03-31T22:03:25.618Z,7.28
2023-03-31T22:08:29.613Z,7.25
2023-03-31T22:13:31.998Z,7.24
2023-03-31T22:18:33.890Z,7.23
2023-03-31T22:23:35.740Z,7.24
2023-03-31T22:28:37.592Z,7.25
2023-03-31T22:33:39.415Z,7.26
2023-03-31T22:38:41.982Z,7.25
2023-03-31T22:43:45.807Z,7.23
2023-03-31T22:48:49.623Z,7.24
2023-03-31T22:53:53.346Z,7.26
2023-03-31T22:58:57.736Z,7.27
2023-03-31T23:04:00.884Z,7.28
2023-03-31T23:09:02.890Z,7.29
2023-03-31T23:14:04.789Z,7.29
2023-03-31T23:19:07.009Z,7.27
2023-03-31T23:24:11.239Z,7.27
2023-03-31T23:29:13.522Z,7.29
2023-03-31T23:34:15.532Z,7.30
2023-03-31T23:39:17.348Z,7.30
2023-03-31T23:44:19.455Z,7.30
2023-03-31T23:49:21.408Z,7.28
2023-03-31T23:54:23.330Z,7.29
2023-03-31T23:59:25.271Z,7.29
